Time,TemperatureF,DewpointF,PressureIn,WindDirection,WindDirectionDegrees,WindSpeedMPH,WindSpeedGustMPH,Humidity,HourlyPrecipIn,Conditions,Clouds,dailyrainin,SoftwareType,DateUTC
2013-06-30 00:08:00,66.7,59.7,29.78,SSE,162,3.0,6.0,78,0.00,CLR,,0.00,WeatherDisplay:10.37,2013-06-30 04:08:00,
2013-06-30 00:18:00,66.9,59.8,29.78,SE,141,3.0,6.0,78,0.00,CLR,,0.00,WeatherDisplay:10.37,2013-06-30 04:18:00,
2013-06-30 00:28:00,67.3,60.5,29.78,East,99,0.0,4.0,79,0.00,CLR,,0.00,WeatherDisplay:10.37,2013-06-30 04:28:00,
2013-06-30 00:38:00,67.5,61.1,29.78,NE,42,0.0,4.0,80,0.00,CLR,,0.00,WeatherDisplay:10.37,2013-06-30 04:38:00,
2013-06-30 00:48:00,67.6,61.2,29.78,East,100,0.0,5.0,80,0.00,CLR,,0.00,WeatherDisplay:10.37,2013-06-30 04:48:00,
2013-06-30 00:58:00,67.6,61.6,29.78,East,89,1.0,6.0,81,0.00,CLR,,0.00,WeatherDisplay:10.37,2013-06-30 04:58:00,
2013-06-30 01:08:00,67.6,61.6,29.78,ESE,115,3.0,4.0,81,0.00,CLR,,0.00,WeatherDisplay:10.37,2013-06-30 05:08:00,
2013-06-30 01:18:00,67.3,61.2,29.78,East,93,5.0,6.0,81,0.00,CLR,,0.00,WeatherDisplay:10.37,2013-06-30 05:18:00,
2013-06-30 01:28:00,67.0,61.0,29.78,NE,56,0.0,4.0,81,0.00,CLR,,0.00,WeatherDisplay:10.37,2013-06-30 05:28:00,
2013-06-30 01:38:00,66.6,60.5,29.78,East,93,0.0,3.0,81,0.00,CLR,,0.00,WeatherDisplay:10.37,2013-06-30 05:38:00,
2013-06-30 01:48:00,66.6,60.9,29.78,SE,145,0.0,4.0,82,0.00,CLR,,0.00,WeatherDisplay:10.37,2013-06-30 05:48:00,
2013-06-30 01:58:00,66.6,60.9,29.78,SSE,158,0.0,0.0,82,0.00,CLR,,0.00,WeatherDisplay:10.37,2013-06-30 05:58:00,
2013-06-30 02:08:00,66.2,60.5,29.78,ESE,121,0.0,0.0,82,0.00,CLR,,0.00,WeatherDisplay:10.37,2013-06-30 06:08:00,
2013-06-30 02:18:00,66.0,60.4,29.78,East,98,0.0,0.0,82,0.00,CLR,,0.00,WeatherDisplay:10.37,2013-06-30 06:18:00,
2013-06-30 02:28:00,65.8,60.2,29.78,ESE,103,0.0,4.0,82,0.00,CLR,,0.00,WeatherDisplay:10.37,2013-06-30 06:28:00,
2013-06-30 02:38:00,65.8,60.2,29.78,East,92,0.0,4.0,82,0.00,CLR,,0.00,WeatherDisplay:10.37,2013-06-30 06:38:00,
2013-06-30 02:48:00,65.8,60.2,29.78,East,95,3.0,5.0,82,0.00,CLR,,0.00,WeatherDisplay:10.37,2013-06-30 06:48:00,
2013-06-30 02:58:00,65.7,60.0,29.78,ESE,108,0.0,4.0,82,0.00,CLR,,0.00,WeatherDisplay:10.37,2013-06-30 06:58:00,
2013-06-30 03:08:00,65.8,60.4,29.78,NNW,341,0.0,3.0,83,0.00,CLR,,0.00,WeatherDisplay:10.37,2013-06-30 07:08:00,
2013-06-30 03:18:00,66.0,60.7,29.78,SSE,157,0.0,3.0,83,0.00,CLR,,0.00,WeatherDisplay:10.37,2013-06-30 07:18:00,
2013-06-30 03:28:00,66.2,60.9,29.78,NE,51,0.0,4.0,83,0.00,CLR,,0.00,WeatherDisplay:10.37,2013-06-30 07:28:00,
2013-06-30 03:38:00,66.2,60.9,29.78,ESE,114,0.0,0.0,83,0.00,CLR,,0.00,WeatherDisplay:10.37,2013-06-30 07:38:00,
2013-06-30 03:48:00,66.4,61.1,29.78,SE,128,0.0,0.0,83,0.00,CLR,,0.00,WeatherDisplay:10.37,2013-06-30 07:48:00,
2013-06-30 03:58:00,66.5,61.1,29.78,SE,128,0.0,0.0,83,0.00,CLR,,0.00,WeatherDisplay:10.37,2013-06-30 07:58:00,
2013-06-30 04:08:00,66.6,61.2,29.78,ESE,116,2.0,4.0,83,0.00,CLR,,0.00,WeatherDisplay:10.37,2013-06-30 08:08:00,
2013-06-30 04:18:00,66.6,61.2,29.78,ESE,102,0.0,2.0,83,0.00,CLR,,0.00,WeatherDisplay:10.37,2013-06-30 08:18:00,
2013-06-30 04:28:00,66.6,61.2,29.78,South,173,0.0,0.0,83,0.00,CLR,,0.00,WeatherDisplay:10.37,2013-06-30 08:28:00,
2013-06-30 04:38:00,66.4,61.1,29.78,SW,228,0.0,0.0,83,0.00,CLR,,0.00,WeatherDisplay:10.37,2013-06-30 08:38:00,
2013-06-30 04:48:00,66.4,61.1,29.78,SW,220,0.0,0.0,83,0.00,CLR,,0.00,WeatherDisplay:10.37,2013-06-30 08:48:00,
2013-06-30 04:58:00,66.4,61.1,29.78,SSW,195,0.0,0.0,83,0.00,CLR,,0.00,WeatherDisplay:10.37,2013-06-30 08:58:00,
2013-06-30 05:08:00,66.4,61.0,29.78,NW,308,0.0,0.0,83,0.00,CLR,,0.00,WeatherDisplay:10.37,2013-06-30 09:08:00,
2013-06-30 05:18:00,66.2,61.2,29.78,NW,322,0.0,0.0,84,0.00,CLR,,0.00,WeatherDisplay:10.37,2013-06-30 09:18:00,
2013-06-30 05:28:00,66.2,61.2,29.78,NW,322,0.0,0.0,84,0.00,CLR,,0.00,WeatherDisplay:10.37,2013-06-30 09:28:00,
2013-06-30 05:38:00,66.2,61.2,29.81,East,91,0.0,0.0,84,0.00,CLR,,0.00,WeatherDisplay:10.37,2013-06-30 09:38:00,
2013-06-30 05:48:00,66.0,61.0,29.81,East,92,0.0,0.0,84,0.00,CLR,,0.00,WeatherDisplay:10.37,2013-06-30 09:48:00,
2013-06-30 05:58:00,65.9,60.9,29.81,NE,50,0.0,0.0,84,0.00,CLR,,0.00,WeatherDisplay:10.37,2013-06-30 09:58:00,
2013-06-30 06:08:00,66.2,61.6,29.81,North,10,0.0,0.0,85,0.00,CLR,,0.00,WeatherDisplay:10.37,2013-06-30 10:08:00,
2013-06-30 06:18:00,66.2,61.6,29.81,North,0,0.0,0.0,85,0.00,CLR,,0.00,WeatherDisplay:10.37,2013-06-30 10:18:00,
2013-06-30 06:28:00,66.4,61.7,29.81,North,0,0.0,0.0,85,0.00,CLR,,0.00,WeatherDisplay:10.37,2013-06-30 10:28:00,
2013-06-30 06:38:00,66.6,61.9,29.81,North,0,0.0,0.0,85,0.00,CLR,,0.00,WeatherDisplay:10.37,2013-06-30 10:38:00,
2013-06-30 06:48:00,66.7,62.1,29.81,North,0,0.0,0.0,85,0.00,CLR,,0.00,WeatherDisplay:10.37,2013-06-30 10:48:00,
2013-06-30 06:58:00,67.1,62.4,29.81,North,0,0.0,0.0,85,0.00,CLR,,0.00,WeatherDisplay:10.37,2013-06-30 10:58:00,
2013-06-30 07:08:00,67.5,62.8,29.81,North,0,0.0,0.0,85,0.00,CLR,,0.00,WeatherDisplay:10.37,2013-06-30 11:08:00,
2013-06-30 07:18:00,67.8,63.5,29.81,North,359,0.0,0.0,86,0.00,CLR,,0.00,WeatherDisplay:10.37,2013-06-30 11:18:00,
2013-06-30 07:28:00,67.8,63.1,29.84,NNW,340,0.0,0.0,85,0.00,CLR,,0.00,WeatherDisplay:10.37,2013-06-30 11:28:00,
2013-06-30 07:38:00,67.9,63.6,29.84,NNW,334,0.0,0.0,86,0.00,CLR,,0.00,WeatherDisplay:10.37,2013-06-30 11:38:00,
2013-06-30 07:48:00,68.1,63.4,29.84,West,271,0.0,0.0,85,0.00,CLR,,0.00,WeatherDisplay:10.37,2013-06-30 11:48:00,
2013-06-30 07:58:00,68.4,64.0,29.84,West,271,0.0,0.0,86,0.00,CLR,,0.00,WeatherDisplay:10.37,2013-06-30 11:58:00,
2013-06-30 08:08:00,68.5,64.2,29.84,SW,235,2.0,4.0,86,0.00,CLR,,0.00,WeatherDisplay:10.37,2013-06-30 12:08:00,
2013-06-30 08:18:00,68.9,64.5,29.84,ESE,120,0.0,2.0,86,0.00,CLR,,0.00,WeatherDisplay:10.37,2013-06-30 12:18:00,
2013-06-30 08:28:00,69.8,65.8,29.84,West,268,0.0,4.0,87,0.00,CLR,,0.00,WeatherDisplay:10.37,2013-06-30 12:28:00,
2013-06-30 08:38:00,70.2,65.8,29.84,West,265,3.0,6.0,86,0.00,CLR,,0.00,WeatherDisplay:10.37,2013-06-30 12:38:00,
2013-06-30 08:48:00,70.5,66.4,29.84,West,274,2.0,6.0,87,0.00,CLR,,0.00,WeatherDisplay:10.37,2013-06-30 12:48:00,
2013-06-30 08:58:00,70.9,66.8,29.84,West,265,0.0,6.0,87,0.00,CLR,,0.00,WeatherDisplay:10.37,2013-06-30 12:58:00,
2013-06-30 09:08:00,71.2,67.2,29.84,West,264,0.0,4.0,87,0.00,CLR,,0.00,WeatherDisplay:10.37,2013-06-30 13:08:00,
2013-06-30 09:18:00,72.2,68.1,29.84,NW,314,0.0,3.0,87,0.00,CLR,,0.00,WeatherDisplay:10.37,2013-06-30 13:18:00,
2013-06-30 09:28:00,73.7,69.6,29.84,West,274,3.0,6.0,87,0.00,CLR,,0.00,WeatherDisplay:10.37,2013-06-30 13:28:00,
2013-06-30 09:38:00,75.0,70.9,29.84,West,273,5.0,6.0,87,0.00,CLR,,0.00,WeatherDisplay:10.37,2013-06-30 13:38:00,
2013-06-30 09:48:00,74.4,69.6,29.84,NW,306,3.0,7.0,85,0.00,CLR,,0.00,WeatherDisplay:10.37,2013-06-30 13:48:00,
2013-06-30 09:58:00,73.6,68.1,29.84,NNW,339,1.0,6.0,83,0.00,CLR,,0.00,WeatherDisplay:10.37,2013-06-30 13:58:00,
2013-06-30 10:08:00,73.4,66.9,29.84,NW,324,2.0,6.0,80,0.00,CLR,,0.00,WeatherDisplay:10.37,2013-06-30 14:08:00,
2013-06-30 10:18:00,74.1,67.2,29.84,North,6,2.0,6.0,79,0.00,CLR,,0.00,WeatherDisplay:10.37,2013-06-30 14:18:00,
2013-06-30 10:28:00,75.4,68.8,29.84,West,271,5.0,6.0,80,0.00,CLR,,0.00,WeatherDisplay:10.37,2013-06-30 14:28:00,
2013-06-30 10:38:00,75.9,68.6,29.84,WNW,289,1.0,6.0,78,0.00,CLR,,0.00,WeatherDisplay:10.37,2013-06-30 14:38:00,
2013-06-30 10:48:00,75.6,66.7,29.84,West,272,2.0,6.0,74,0.00,CLR,,0.00,WeatherDisplay:10.37,2013-06-30 14:48:00,
2013-06-30 10:58:00,75.9,66.6,29.84,WNW,286,2.0,5.0,73,0.00,CLR,,0.00,WeatherDisplay:10.37,2013-06-30 14:58:00,
2013-06-30 11:08:00,76.3,67.0,29.84,West,268,2.0,6.0,73,0.00,CLR,,0.00,WeatherDisplay:10.37,2013-06-30 15:08:00,
2013-06-30 11:18:00,76.7,66.6,29.84,West,271,2.0,6.0,71,0.00,CLR,,0.00,WeatherDisplay:10.37,2013-06-30 15:18:00,
2013-06-30 11:28:00,77.9,68.6,29.84,SSW,200,1.0,6.0,73,0.00,CLR,,0.00,WeatherDisplay:10.37,2013-06-30 15:28:00,
2013-06-30 11:38:00,79.2,67.7,29.84,SE,130,5.0,6.0,68,0.00,CLR,,0.00,WeatherDisplay:10.37,2013-06-30 15:38:00,
2013-06-30 11:48:00,79.2,60.6,29.84,East,95,6.0,8.0,53,0.00,CLR,,0.00,WeatherDisplay:10.37,2013-06-30 15:48:00,
2013-06-30 11:58:00,79.3,61.2,29.84,SE,139,6.0,9.0,54,0.00,CLR,,0.00,WeatherDisplay:10.37,2013-06-30 15:58:00,
2013-06-30 12:08:00,80.0,59.7,29.84,SE,139,6.0,10.0,50,0.00,CLR,,0.00,WeatherDisplay:10.37,2013-06-30 16:08:00,
2013-06-30 12:18:00,80.5,59.6,29.84,SE,141,3.0,8.0,49,0.00,CLR,,0.00,WeatherDisplay:10.37,2013-06-30 16:18:00,
2013-06-30 12:28:00,80.2,58.2,29.84,SE,136,3.0,8.0,47,0.00,CLR,,0.00,WeatherDisplay:10.37,2013-06-30 16:28:00,
2013-06-30 12:38:00,80.9,58.2,29.84,ESE,121,6.0,9.0,46,0.00,CLR,,0.00,WeatherDisplay:10.37,2013-06-30 16:38:00,
2013-06-30 12:48:00,81.0,56.4,29.84,SE,131,5.0,12.0,43,0.00,CLR,,0.00,WeatherDisplay:10.37,2013-06-30 16:48:00,
2013-06-30 12:58:00,81.3,56.0,29.84,ESE,117,8.0,12.0,42,0.00,CLR,,0.00,WeatherDisplay:10.37,2013-06-30 16:58:00,
2013-06-30 13:08:00,81.7,57.0,29.84,SSE,152,3.0,9.0,43,0.00,CLR,,0.00,WeatherDisplay:10.37,2013-06-30 17:08:00,
2013-06-30 13:18:00,82.4,55.7,29.84,South,183,6.0,10.0,40,0.00,CLR,,0.00,WeatherDisplay:10.37,2013-06-30 17:18:00,
2013-06-30 13:28:00,82.4,57.0,29.84,SSE,166,3.0,8.0,42,0.00,CLR,,0.00,WeatherDisplay:10.37,2013-06-30 17:28:00,
2013-06-30 13:38:00,82.7,56.6,29.84,South,170,6.0,9.0,41,0.00,CLR,,0.00,WeatherDisplay:10.37,2013-06-30 17:38:00,
2013-06-30 13:48:00,83.7,56.1,29.84,South,174,5.0,8.0,39,0.00,CLR,,0.00,WeatherDisplay:10.37,2013-06-30 17:48:00,
2013-06-30 13:58:00,84.6,57.0,29.84,SSW,200,2.0,6.0,39,0.00,CLR,,0.00,WeatherDisplay:10.37,2013-06-30 17:58:00,
2013-06-30 14:08:00,84.9,54.2,29.84,SSW,192,3.0,8.0,35,0.00,CLR,,0.00,WeatherDisplay:10.37,2013-06-30 18:08:00,
2013-06-30 14:18:00,84.7,55.6,29.84,SSW,201,1.0,6.0,37,0.00,CLR,,0.00,WeatherDisplay:10.37,2013-06-30 18:18:00,
2013-06-30 14:28:00,85.3,56.1,29.84,South,185,3.0,8.0,37,0.00,CLR,,0.00,WeatherDisplay:10.37,2013-06-30 18:28:00,
2013-06-30 14:38:00,85.5,55.5,29.81,South,171,5.0,8.0,36,0.00,CLR,,0.00,WeatherDisplay:10.37,2013-06-30 18:38:00,
2013-06-30 14:48:00,86.4,53.9,29.81,South,173,3.0,6.0,33,0.00,CLR,,0.00,WeatherDisplay:10.37,2013-06-30 18:48:00,
2013-06-30 14:58:00,85.5,53.9,29.81,SE,143,5.0,9.0,34,0.00,CLR,,0.00,WeatherDisplay:10.37,2013-06-30 18:58:00,
2013-06-30 15:08:00,84.7,55.6,29.81,SE,133,5.0,8.0,37,0.00,CLR,,0.00,WeatherDisplay:10.37,2013-06-30 19:08:00,
2013-06-30 15:18:00,85.3,55.3,29.81,SE,146,6.0,8.0,36,0.00,CLR,,0.00,WeatherDisplay:10.37,2013-06-30 19:18:00,
2013-06-30 15:28:00,85.6,54.8,29.81,SE,146,7.0,10.0,35,0.00,CLR,,0.00,WeatherDisplay:10.37,2013-06-30 19:28:00,
2013-06-30 15:38:00,85.8,53.4,29.81,SSE,162,7.0,11.0,33,0.00,CLR,,0.00,WeatherDisplay:10.37,2013-06-30 19:38:00,
2013-06-30 15:48:00,86.2,55.3,29.81,South,172,6.0,9.0,35,0.00,CLR,,0.00,WeatherDisplay:10.37,2013-06-30 19:48:00,
2013-06-30 15:58:00,87.1,54.5,29.81,South,180,3.0,9.0,33,0.00,CLR,,0.00,WeatherDisplay:10.37,2013-06-30 19:58:00,
2013-06-30 16:08:00,86.4,53.9,29.81,SSE,160,6.0,9.0,33,0.00,CLR,,0.00,WeatherDisplay:10.37,2013-06-30 20:08:00,
2013-06-30 16:18:00,86.4,53.0,29.81,South,169,6.0,9.0,32,0.00,CLR,,0.00,WeatherDisplay:10.37,2013-06-30 20:18:00,
2013-06-30 16:28:00,85.8,54.2,29.81,South,177,5.0,8.0,34,0.00,CLR,,0.00,WeatherDisplay:10.37,2013-06-30 20:28:00,
2013-06-30 16:38:00,86.0,53.5,29.81,South,176,3.0,8.0,33,0.00,CLR,,0.00,WeatherDisplay:10.37,2013-06-30 20:38:00,
2013-06-30 16:48:00,86.0,52.7,29.81,SSE,151,6.0,11.0,32,0.00,CLR,,0.00,WeatherDisplay:10.37,2013-06-30 20:48:00,
2013-06-30 16:58:00,85.6,54.0,29.81,SSE,156,7.0,11.0,34,0.00,CLR,,0.00,WeatherDisplay:10.37,2013-06-30 20:58:00,
2013-06-30 17:08:00,84.9,55.7,29.81,SSE,162,7.0,13.0,37,0.00,CLR,,0.00,WeatherDisplay:10.37,2013-06-30 21:08:00,
2013-06-30 17:18:00,84.5,52.3,29.81,South,171,9.0,13.0,33,0.00,CLR,,0.00,WeatherDisplay:10.37,2013-06-30 21:18:00,
2013-06-30 17:28:00,84.1,49.3,29.81,SSE,161,8.0,13.0,30,0.00,CLR,,0.00,WeatherDisplay:10.37,2013-06-30 21:28:00,
2013-06-30 17:38:00,83.8,50.0,29.84,SSE,161,8.0,9.0,31,0.00,CLR,,0.00,WeatherDisplay:10.37,2013-06-30 21:38:00,
2013-06-30 17:48:00,83.4,49.6,29.84,SSE,149,9.0,13.0,31,0.00,CLR,,0.00,WeatherDisplay:10.37,2013-06-30 21:48:00,
2013-06-30 17:58:00,82.0,51.7,29.81,SSE,149,6.0,14.0,35,0.00,CLR,,0.00,WeatherDisplay:10.37,2013-06-30 21:58:00,
2013-06-30 18:08:00,81.5,53.4,29.81,SSE,149,7.0,13.0,38,0.00,CLR,,0.00,WeatherDisplay:10.37,2013-06-30 22:08:00,
2013-06-30 18:18:00,80.9,53.6,29.81,SE,142,9.0,16.0,39,0.00,CLR,,0.00,WeatherDisplay:10.37,2013-06-30 22:18:00,
2013-06-30 18:28:00,80.2,54.3,29.84,SSE,149,5.0,12.0,41,0.00,CLR,,0.00,WeatherDisplay:10.37,2013-06-30 22:28:00,
2013-06-30 18:38:00,79.9,55.4,29.84,SSE,155,7.0,10.0,43,0.00,CLR,,0.00,WeatherDisplay:10.37,2013-06-30 22:38:00,
2013-06-30 18:48:00,79.9,56.0,29.84,SSE,162,5.0,12.0,44,0.00,CLR,,0.00,WeatherDisplay:10.37,2013-06-30 22:48:00,
2013-06-30 18:58:00,80.1,56.2,29.84,SSE,166,3.0,9.0,44,0.00,CLR,,0.00,WeatherDisplay:10.37,2013-06-30 22:58:00,
2013-06-30 19:08:00,79.9,56.6,29.84,SSE,159,3.0,6.0,45,0.00,CLR,,0.00,WeatherDisplay:10.37,2013-06-30 23:08:00,
2013-06-30 19:18:00,79.9,57.3,29.84,SE,143,1.0,6.0,46,0.00,CLR,,0.00,WeatherDisplay:10.37,2013-06-30 23:18:00,
2013-06-30 19:28:00,79.7,57.1,29.87,SE,140,5.0,6.0,46,0.00,CLR,,0.00,WeatherDisplay:10.37,2013-06-30 23:28:00,
2013-06-30 19:38:00,79.2,56.6,29.87,SSE,151,5.0,9.0,46,0.00,CLR,,0.00,WeatherDisplay:10.37,2013-06-30 23:38:00,
2013-06-30 19:48:00,78.8,56.9,29.87,SE,141,6.0,8.0,47,0.00,CLR,,0.00,WeatherDisplay:10.37,2013-06-30 23:48:00,
2013-06-30 19:58:00,78.3,57.0,29.87,SE,130,5.0,9.0,48,0.00,CLR,,0.00,WeatherDisplay:10.37,2013-06-30 23:58:00,
2013-06-30 20:08:00,78.0,57.8,29.87,SSE,166,3.0,6.0,50,0.00,CLR,,0.00,WeatherDisplay:10.37,2013-07-01 00:08:00,
2013-06-30 20:18:00,77.0,56.4,29.87,WNW,297,2.0,8.0,49,0.00,CLR,,0.00,WeatherDisplay:10.37,2013-07-01 00:18:00,
2013-06-30 20:28:00,75.9,56.5,29.87,NNE,24,3.0,4.0,51,0.00,CLR,,0.00,WeatherDisplay:10.37,2013-07-01 00:28:00,
2013-06-30 20:38:00,75.2,56.9,29.87,NNE,21,2.0,6.0,53,0.00,CLR,,0.00,WeatherDisplay:10.37,2013-07-01 00:38:00,
2013-06-30 20:48:00,74.7,57.4,29.87,NE,49,0.0,4.0,55,0.00,CLR,,0.00,WeatherDisplay:10.37,2013-07-01 00:48:00,
2013-06-30 20:58:00,74.1,57.4,29.87,SSE,153,0.0,0.0,56,0.00,CLR,,0.00,WeatherDisplay:10.37,2013-07-01 00:58:00,
2013-06-30 21:08:00,73.7,58.5,29.90,NE,53,0.0,0.0,59,0.00,CLR,,0.00,WeatherDisplay:10.37,2013-07-01 01:08:00,
2013-06-30 21:18:00,73.4,59.1,29.90,NE,49,0.0,0.0,61,0.00,CLR,,0.00,WeatherDisplay:10.37,2013-07-01 01:18:00,
2013-06-30 21:28:00,74.0,60.6,29.90,SSE,148,0.0,0.0,63,0.00,CLR,,0.00,WeatherDisplay:10.37,2013-07-01 01:28:00,
2013-06-30 21:38:00,74.8,62.6,29.90,SSW,208,0.0,0.0,66,0.00,CLR,,0.00,WeatherDisplay:10.37,2013-07-01 01:38:00,
2013-06-30 21:48:00,74.7,63.0,29.90,WSW,241,0.0,0.0,67,0.00,CLR,,0.00,WeatherDisplay:10.37,2013-07-01 01:48:00,
2013-06-30 21:58:00,74.8,63.6,29.90,South,171,0.0,0.0,68,0.00,CLR,,0.00,WeatherDisplay:10.37,2013-07-01 01:58:00,
2013-06-30 22:08:00,74.7,63.4,29.90,SW,234,0.0,0.0,68,0.00,CLR,,0.00,WeatherDisplay:10.37,2013-07-01 02:08:00,
2013-06-30 22:18:00,74.7,63.4,29.90,SSE,152,0.0,0.0,68,0.00,CLR,,0.00,WeatherDisplay:10.37,2013-07-01 02:18:00,
2013-06-30 22:28:00,75.1,64.3,29.90,SSE,159,0.0,0.0,69,0.00,CLR,,0.00,WeatherDisplay:10.37,2013-07-01 02:28:00,
2013-06-30 22:38:00,75.4,64.5,29.90,SE,141,5.0,6.0,69,0.00,CLR,,0.00,WeatherDisplay:10.37,2013-07-01 02:38:00,
2013-06-30 22:48:00,75.7,65.3,29.90,SE,145,5.0,6.0,70,0.00,CLR,,0.00,WeatherDisplay:10.37,2013-07-01 02:48:00,
2013-06-30 22:58:00,75.7,65.3,29.90,SSE,147,5.0,6.0,70,0.00,CLR,,0.00,WeatherDisplay:10.37,2013-07-01 02:58:00,
2013-06-30 23:08:00,76.1,65.2,29.90,SSE,156,3.0,6.0,69,0.00,CLR,,0.00,WeatherDisplay:10.37,2013-07-01 03:08:00,
2013-06-30 23:18:00,76.1,64.8,29.90,SE,131,3.0,6.0,68,0.00,CLR,,0.00,WeatherDisplay:10.37,2013-07-01 03:18:00,
2013-06-30 23:28:00,75.7,64.4,29.93,SE,133,3.0,7.0,68,0.00,CLR,,0.00,WeatherDisplay:10.37,2013-07-01 03:28:00,
2013-06-30 23:38:00,75.4,64.1,29.90,SE,135,5.0,6.0,68,0.00,CLR,,0.00,WeatherDisplay:10.37,2013-07-01 03:38:00,
2013-06-30 23:48:00,75.0,64.2,29.90,ESE,122,5.0,6.0,69,0.00,CLR,,0.00,WeatherDisplay:10.37,2013-07-01 03:48:00,
2013-06-30 23:58:00,74.8,64.4,29.90,ESE,123,5.0,6.0,70,0.00,CLR,,0.00,WeatherDisplay:10.37,2013-07-01 03:58:00,